Creswell, North Carolina
Current Conditions -  °F | °C
As of 7:55 PM on Saturday 22 Nov 2014 (Local Time) from KEDE Reporting Station
NA  
Wind Chill: 37°   Ceiling: NA
Heat Index: 37°   Visibility: 10mi
Dew Point: 31°   Wind: 0mph
Humidity: 80%   Direction: NA
Pressure: 30.38"   Gusts: NA
Location:  35.87°N, 76.39°W
Report Text: KEDE 230055Z AUTO 00000KT 10SM 03/00 A3038 RMK AO2 T00261005
Loading
Personal Weather Stations






























Interactive Weather Map New forecast layout! Learn more

10-Day Weather Forecast

Advertisements
Track Severe Weather on mobile